createdAt,value
2023-03-17T00:00:57.144Z,954.03
2023-03-17T00:03:56.972Z,953.98
2023-03-17T00:06:57.744Z,954.01
2023-03-17T00:09:56.889Z,954.03
2023-03-17T00:12:56.889Z,954.04
2023-03-17T00:15:57.357Z,953.97
2023-03-17T00:18:57.208Z,953.97
2023-03-17T00:21:57.684Z,953.95
2023-03-17T00:24:56.665Z,953.95
2023-03-17T00:27:56.924Z,953.97
2023-03-17T00:30:57.850Z,953.95
2023-03-17T00:33:56.612Z,953.98
2023-03-17T00:36:56.877Z,953.88
2023-03-17T00:39:57.332Z,953.91
2023-03-17T00:42:57.495Z,953.88
2023-03-17T00:45:56.855Z,953.94
2023-03-17T00:48:57.370Z,953.9
2023-03-17T00:51:56.603Z,953.78
2023-03-17T00:54:57.038Z,953.67
2023-03-17T00:57:57.256Z,953.58
2023-03-17T01:00:57.735Z,953.6
2023-03-17T01:03:57.454Z,953.54
2023-03-17T01:06:56.752Z,953.45
2023-03-17T01:09:57.079Z,953.48
2023-03-17T01:12:57.508Z,953.45
2023-03-17T01:15:57.285Z,953.34
2023-03-17T01:18:57.877Z,953.34
2023-03-17T01:21:57.018Z,953.3
2023-03-17T01:24:56.944Z,953.16
2023-03-17T01:27:57.132Z,953.14
2023-03-17T01:30:57.872Z,953.18
2023-03-17T01:33:57.472Z,953.17
2023-03-17T01:36:56.800Z,953.13
2023-03-17T01:39:56.912Z,953.17
2023-03-17T01:42:57.387Z,953.0
2023-03-17T01:45:57.729Z,953.08
2023-03-17T01:48:57.551Z,953.04
2023-03-17T01:51:57.167Z,952.96
2023-03-17T01:54:57.373Z,952.93
2023-03-17T01:57:57.427Z,952.96
2023-03-17T02:00:58.312Z,952.93
2023-03-17T02:03:57.221Z,952.9
2023-03-17T02:06:58.505Z,952.92
2023-03-17T02:09:57.312Z,952.84
2023-03-17T02:12:57.642Z,952.84
2023-03-17T02:15:57.341Z,952.93
2023-03-17T02:18:56.560Z,952.83
2023-03-17T02:21:57.673Z,952.81
2023-03-17T02:24:56.960Z,952.71
2023-03-17T02:27:57.251Z,952.86
2023-03-17T02:30:57.892Z,952.84
2023-03-17T02:33:57.542Z,952.83
2023-03-17T02:36:57.229Z,952.78
2023-03-17T02:39:56.798Z,952.74
2023-03-17T02:42:57.279Z,952.78
2023-03-17T02:45:57.486Z,952.7
2023-03-17T02:48:57.437Z,952.78
2023-03-17T02:51:57.577Z,952.69
2023-03-17T02:54:57.544Z,952.72
2023-03-17T02:57:56.478Z,952.74
2023-03-17T03:00:57.006Z,952.82
2023-03-17T03:03:56.949Z,952.76
2023-03-17T03:06:57.481Z,952.83
2023-03-17T03:09:57.585Z,952.82
2023-03-17T03:12:57.354Z,952.91
2023-03-17T03:15:56.710Z,952.79
2023-03-17T03:18:57.054Z,952.72
2023-03-17T03:21:57.177Z,952.67
2023-03-17T03:24:57.211Z,952.63
2023-03-17T03:27:57.639Z,952.62
2023-03-17T03:30:57.348Z,952.62
2023-03-17T03:33:57.470Z,952.66
2023-03-17T03:36:57.538Z,952.65
2023-03-17T03:39:57.091Z,952.65
2023-03-17T03:42:56.993Z,952.66
2023-03-17T03:45:57.472Z,952.63
2023-03-17T03:48:57.325Z,952.48
2023-03-17T03:51:57.774Z,952.47
2023-03-17T03:54:57.065Z,952.48
2023-03-17T03:57:57.110Z,952.38
2023-03-17T04:00:57.816Z,952.41
2023-03-17T04:03:57.604Z,952.42
2023-03-17T04:06:56.818Z,952.38
2023-03-17T04:09:57.677Z,952.51
2023-03-17T04:12:57.132Z,952.41
2023-03-17T04:15:57.456Z,952.29
2023-03-17T04:18:57.385Z,952.51
2023-03-17T04:21:57.513Z,952.41
2023-03-17T04:24:57.082Z,952.44
2023-03-17T04:27:56.701Z,952.43
2023-03-17T04:30:57.515Z,952.33
2023-03-17T04:33:56.958Z,952.42
2023-03-17T04:36:57.298Z,952.28
2023-03-17T04:39:57.534Z,952.28
2023-03-17T04:43:03.540Z,952.1
2023-03-17T04:45:57.224Z,952.15
2023-03-17T04:48:56.891Z,952.26
2023-03-17T04:51:57.211Z,952.32
2023-03-17T04:54:57.712Z,952.22
2023-03-17T04:57:57.003Z,952.15
2023-03-17T05:00:58.035Z,952.09
2023-03-17T05:03:57.179Z,952.21
2023-03-17T05:06:56.832Z,952.25
2023-03-17T05:09:57.579Z,952.22
2023-03-17T05:12:57.649Z,952.25
2023-03-17T05:15:57.092Z,952.09
2023-03-17T05:19:02.391Z,952.17
2023-03-17T05:21:57.574Z,952.22
2023-03-17T05:24:57.319Z,952.17
2023-03-17T05:27:57.275Z,952.24
2023-03-17T05:30:57.587Z,952.23
2023-03-17T05:33:57.523Z,952.11
2023-03-17T05:36:56.968Z,952.01
2023-03-17T05:39:57.436Z,951.94
2023-03-17T05:42:57.038Z,952.01
2023-03-17T05:45:57.770Z,951.9
2023-03-17T05:48:56.789Z,951.97
2023-03-17T05:51:57.132Z,951.85
2023-03-17T05:54:57.206Z,951.89
2023-03-17T05:57:56.783Z,951.79
2023-03-17T06:00:57.139Z,951.85
2023-03-17T06:03:57.186Z,951.83
2023-03-17T06:06:57.756Z,951.84
2023-03-17T06:09:57.944Z,951.89
2023-03-17T06:12:57.505Z,951.91
2023-03-17T06:15:57.316Z,951.93
2023-03-17T06:18:56.800Z,952.01
2023-03-17T06:21:57.713Z,952.03
2023-03-17T06:24:57.339Z,952.22
2023-03-17T06:27:56.982Z,952.29
2023-03-17T06:30:57.578Z,952.25
2023-03-17T06:33:57.432Z,952.39
2023-03-17T06:36:57.927Z,952.18
2023-03-17T06:39:57.296Z,952.32
2023-03-17T06:42:57.394Z,952.26
2023-03-17T06:45:57.128Z,952.26
2023-03-17T06:48:56.872Z,952.21
2023-03-17T06:51:57.629Z,952.15
2023-03-17T06:54:58.234Z,952.11
2023-03-17T06:57:58.354Z,952.04
2023-03-17T07:00:57.292Z,952.06
2023-03-17T07:03:57.493Z,952.09
2023-03-17T07:06:57.256Z,951.98
2023-03-17T07:09:57.878Z,951.9
2023-03-17T07:12:57.108Z,952.11
2023-03-17T07:16:00.353Z,952.27
2023-03-17T07:18:57.802Z,952.29
2023-03-17T07:21:57.194Z,952.35
2023-03-17T07:24:58.003Z,952.3
2023-03-17T07:27:57.691Z,952.42
2023-03-17T07:30:57.623Z,952.36
2023-03-17T07:33:57.378Z,952.4
2023-03-17T07:36:57.602Z,952.37
2023-03-17T07:39:57.346Z,952.48
2023-03-17T07:42:57.681Z,952.28
2023-03-17T07:45:57.593Z,952.31
2023-03-17T07:48:57.234Z,952.34
2023-03-17T07:51:57.329Z,952.33
2023-03-17T07:54:57.993Z,952.28
2023-03-17T07:57:57.261Z,952.26
2023-03-17T08:00:56.711Z,952.25
2023-03-17T08:03:57.457Z,952.23
2023-03-17T08:06:57.810Z,952.22
2023-03-17T08:09:57.418Z,952.06
2023-03-17T08:12:57.116Z,952.05
2023-03-17T08:15:57.351Z,951.96
2023-03-17T08:18:56.600Z,952.05
2023-03-17T08:21:56.926Z,952.06
2023-03-17T08:24:57.619Z,952.07
2023-03-17T08:27:56.953Z,952.08
2023-03-17T08:30:57.372Z,952.03
2023-03-17T08:33:57.484Z,951.91
2023-03-17T08:36:57.113Z,951.95
2023-03-17T08:39:57.226Z,951.94
2023-03-17T08:42:56.772Z,951.96
2023-03-17T08:45:57.706Z,951.92
2023-03-17T08:48:57.851Z,952.07
2023-03-17T08:51:57.745Z,951.92
2023-03-17T08:54:57.970Z,951.93
2023-03-17T08:57:57.279Z,951.87
2023-03-17T09:00:57.121Z,951.87
2023-03-17T09:03:57.053Z,951.85
2023-03-17T09:07:03.808Z,951.86
2023-03-17T09:09:57.719Z,951.86
2023-03-17T09:12:57.233Z,951.9
2023-03-17T09:15:56.656Z,951.84
2023-03-17T09:18:57.308Z,951.93
2023-03-17T09:21:57.628Z,951.9
2023-03-17T09:24:57.042Z,952.06
2023-03-17T09:27:56.861Z,951.92
2023-03-17T09:30:57.685Z,951.85
2023-03-17T09:33:57.197Z,951.89
2023-03-17T09:36:57.150Z,951.83
2023-03-17T09:39:57.569Z,951.79
2023-03-17T09:42:57.119Z,951.8
2023-03-17T09:45:57.518Z,951.8
2023-03-17T09:48:57.463Z,951.82
2023-03-17T09:51:56.938Z,951.74
2023-03-17T09:54:57.646Z,951.83
2023-03-17T09:57:57.877Z,951.74
2023-03-17T10:00:57.919Z,951.76
2023-03-17T10:03:57.815Z,951.71
2023-03-17T10:06:57.740Z,951.75
2023-03-17T10:09:58.063Z,951.76
2023-03-17T10:12:57.070Z,951.83
2023-03-17T10:15:57.704Z,951.83
2023-03-17T10:18:57.566Z,951.69
2023-03-17T10:21:57.690Z,951.75
2023-03-17T10:24:57.419Z,951.76
2023-03-17T10:27:57.352Z,951.75
2023-03-17T10:30:57.649Z,951.67
2023-03-17T10:33:57.291Z,951.67
2023-03-17T10:36:57.279Z,951.7
2023-03-17T10:39:57.695Z,951.7
2023-03-17T10:42:57.245Z,951.69
2023-03-17T10:45:58.013Z,951.66
2023-03-17T10:48:57.172Z,951.76
2023-03-17T10:51:57.050Z,951.78
2023-03-17T10:54:57.673Z,951.77
2023-03-17T10:57:57.224Z,951.74
2023-03-17T11:00:57.442Z,951.67
2023-03-17T11:04:16.260Z,951.68
2023-03-17T11:06:56.784Z,951.64
2023-03-17T11:09:57.888Z,951.58
2023-03-17T11:12:56.853Z,951.54
2023-03-17T11:15:57.090Z,951.5
2023-03-17T11:18:57.632Z,951.6
2023-03-17T11:21:57.013Z,951.55
2023-03-17T11:24:56.564Z,951.51
2023-03-17T11:27:57.114Z,951.52
2023-03-17T11:30:57.654Z,951.46
2023-03-17T11:33:57.112Z,951.47
2023-03-17T11:36:58.739Z,951.43
2023-03-17T11:39:57.933Z,951.42
2023-03-17T11:42:57.122Z,951.36
2023-03-17T11:45:58.168Z,951.47
2023-03-17T11:48:57.234Z,951.38
2023-03-17T11:51:57.199Z,951.36
2023-03-17T11:54:58.846Z,951.26
2023-03-17T11:57:57.127Z,951.27
2023-03-17T12:00:57.849Z,951.35
2023-03-17T12:03:57.676Z,951.2
2023-03-17T12:06:57.178Z,951.2
2023-03-17T12:09:57.175Z,951.22
2023-03-17T12:12:58.033Z,951.18
2023-03-17T12:15:57.087Z,951.1
2023-03-17T12:18:57.525Z,951.18
2023-03-17T12:21:56.902Z,951.13
2023-03-17T12:24:56.866Z,951.12
2023-03-17T12:27:57.848Z,951.19
2023-03-17T12:30:57.810Z,951.1
2023-03-17T12:33:57.140Z,951.25
2023-03-17T12:36:57.676Z,951.08
2023-03-17T12:39:57.476Z,951.02
2023-03-17T12:42:57.117Z,950.98
2023-03-17T12:45:56.815Z,950.93
2023-03-17T12:48:57.202Z,950.9
2023-03-17T12:51:57.061Z,950.89
2023-03-17T12:54:57.926Z,950.95
2023-03-17T12:57:57.201Z,950.8
2023-03-17T13:00:57.165Z,950.84
2023-03-17T13:03:56.972Z,950.8
2023-03-17T13:06:57.381Z,950.73
2023-03-17T13:09:57.292Z,950.71
2023-03-17T13:12:56.992Z,950.75
2023-03-17T13:15:57.803Z,950.71
2023-03-17T13:18:56.945Z,950.61
2023-03-17T13:21:57.624Z,950.64
2023-03-17T13:24:57.962Z,950.59
2023-03-17T13:27:57.517Z,950.56
2023-03-17T13:30:57.532Z,950.57
2023-03-17T13:33:57.021Z,950.48
2023-03-17T13:36:57.542Z,950.48
2023-03-17T13:39:57.507Z,950.51
2023-03-17T13:42:56.883Z,950.48
2023-03-17T13:45:57.652Z,950.54
2023-03-17T13:48:57.666Z,950.48
2023-03-17T13:52:00.348Z,950.53
2023-03-17T13:54:57.279Z,950.46
2023-03-17T13:57:57.612Z,950.51
2023-03-17T14:00:57.432Z,950.44
2023-03-17T14:03:57.341Z,950.39
2023-03-17T14:06:57.753Z,950.28
2023-03-17T14:09:57.650Z,950.34
2023-03-17T14:12:57.425Z,950.29
2023-03-17T14:15:58.070Z,950.28
2023-03-17T14:18:57.070Z,950.25
2023-03-17T14:21:58.040Z,950.2
2023-03-17T14:24:56.879Z,950.22
2023-03-17T14:27:57.812Z,950.2
2023-03-17T14:30:57.806Z,950.15
2023-03-17T14:33:57.331Z,950.11
2023-03-17T14:36:57.201Z,950.23
2023-03-17T14:39:57.028Z,950.07
2023-03-17T14:42:57.857Z,950.13
2023-03-17T14:45:57.373Z,950.04
2023-03-17T14:48:56.882Z,950.0
2023-03-17T14:51:56.822Z,950.02
2023-03-17T14:54:56.977Z,949.98
2023-03-17T14:57:56.690Z,949.87
2023-03-17T15:00:57.757Z,949.82
2023-03-17T15:03:56.815Z,949.85
2023-03-17T15:06:57.456Z,949.88
2023-03-17T15:09:57.523Z,949.87
2023-03-17T15:12:56.897Z,949.87
2023-03-17T15:15:57.480Z,949.85
2023-03-17T15:18:57.294Z,949.84
2023-03-17T15:21:57.135Z,949.85
2023-03-17T15:24:57.291Z,949.83
2023-03-17T15:27:56.944Z,949.84
2023-03-17T15:30:57.315Z,949.92
2023-03-17T15:33:57.835Z,949.82
2023-03-17T15:36:58.058Z,949.83
2023-03-17T15:39:57.298Z,949.73
2023-03-17T15:42:57.253Z,949.92
2023-03-17T15:45:56.955Z,949.84
2023-03-17T15:48:56.917Z,949.79
2023-03-17T15:51:56.961Z,949.91
2023-03-17T15:54:56.981Z,949.79
2023-03-17T15:57:57.074Z,949.81
2023-03-17T16:00:58.224Z,949.84
2023-03-17T16:03:57.205Z,949.88
2023-03-17T16:06:57.751Z,949.94
2023-03-17T16:09:57.550Z,949.86
2023-03-17T16:12:56.938Z,949.86
2023-03-17T16:15:56.938Z,949.92
2023-03-17T16:18:57.267Z,949.94
2023-03-17T16:21:57.478Z,949.94
2023-03-17T16:24:57.298Z,949.97
2023-03-17T16:27:57.553Z,949.9
2023-03-17T16:30:57.660Z,949.84
2023-03-17T16:33:57.175Z,950.0
2023-03-17T16:36:57.343Z,949.87
2023-03-17T16:39:57.046Z,949.9
2023-03-17T16:42:56.944Z,949.9
2023-03-17T16:45:57.057Z,949.88
2023-03-17T16:48:57.377Z,949.9
2023-03-17T16:51:57.088Z,949.84
2023-03-17T16:55:00.190Z,949.9
2023-03-17T16:57:57.729Z,949.83
2023-03-17T17:00:57.932Z,949.86
2023-03-17T17:03:57.105Z,949.79
2023-03-17T17:06:57.244Z,949.9
2023-03-17T17:09:57.976Z,949.86
2023-03-17T17:12:57.577Z,949.83
2023-03-17T17:15:57.756Z,949.86
2023-03-17T17:18:56.765Z,949.85
2023-03-17T17:21:57.288Z,949.91
2023-03-17T17:24:57.520Z,949.86
2023-03-17T17:27:56.997Z,949.94
2023-03-17T17:30:58.225Z,949.93
2023-03-17T17:33:56.787Z,949.97
2023-03-17T17:36:56.914Z,949.99
2023-03-17T17:39:56.844Z,950.0
2023-03-17T17:42:57.512Z,949.98
2023-03-17T17:45:57.185Z,949.99
2023-03-17T17:48:57.493Z,949.98
2023-03-17T17:51:57.081Z,949.92
2023-03-17T17:54:57.444Z,949.96
2023-03-17T17:57:57.681Z,950.01
2023-03-17T18:00:57.619Z,950.05
2023-03-17T18:03:56.984Z,949.98
2023-03-17T18:06:57.929Z,949.98
2023-03-17T18:09:57.022Z,950.05
2023-03-17T18:12:57.212Z,950.02
2023-03-17T18:15:57.033Z,950.17
2023-03-17T18:18:57.856Z,950.17
2023-03-17T18:21:57.119Z,950.14
2023-03-17T18:24:57.576Z,950.18
2023-03-17T18:27:57.236Z,950.23
2023-03-17T18:30:57.625Z,950.19
2023-03-17T18:33:57.108Z,950.22
2023-03-17T18:36:57.590Z,950.3
2023-03-17T18:40:12.241Z,950.27
2023-03-17T18:42:57.586Z,950.33
2023-03-17T18:45:58.300Z,950.33
2023-03-17T18:48:57.620Z,950.39
2023-03-17T18:51:56.955Z,950.41
2023-03-17T18:54:57.693Z,950.38
2023-03-17T18:57:56.888Z,950.44
2023-03-17T19:01:25.405Z,950.47
2023-03-17T19:03:57.343Z,950.45
2023-03-17T19:06:57.101Z,950.51
2023-03-17T19:09:57.318Z,950.44
2023-03-17T19:12:57.647Z,950.48
2023-03-17T19:15:57.835Z,950.44
2023-03-17T19:18:57.670Z,950.48
2023-03-17T19:21:57.028Z,950.37
2023-03-17T19:24:57.581Z,950.38
2023-03-17T19:27:57.486Z,950.36
2023-03-17T19:30:57.698Z,950.42
2023-03-17T19:33:56.792Z,950.5
2023-03-17T19:36:56.902Z,950.42
2023-03-17T19:39:57.344Z,950.66
2023-03-17T19:42:57.638Z,950.46
2023-03-17T19:45:57.131Z,950.57
2023-03-17T19:48:57.632Z,950.6
2023-03-17T19:51:57.786Z,950.65
2023-03-17T19:54:57.467Z,950.82
2023-03-17T19:57:56.628Z,950.75
2023-03-17T20:00:57.493Z,950.78
2023-03-17T20:03:57.898Z,950.75
2023-03-17T20:06:57.197Z,950.71
2023-03-17T20:09:57.409Z,950.75
2023-03-17T20:12:56.952Z,950.81
2023-03-17T20:15:58.131Z,950.79
2023-03-17T20:18:57.541Z,950.8
2023-03-17T20:21:57.196Z,950.76
2023-03-17T20:24:57.837Z,950.84
2023-03-17T20:27:57.232Z,950.78
2023-03-17T20:30:57.404Z,950.69
2023-03-17T20:33:56.962Z,950.7
2023-03-17T20:36:56.377Z,950.69
2023-03-17T20:39:57.197Z,950.67
2023-03-17T20:42:57.017Z,950.69
2023-03-17T20:45:57.065Z,950.68
2023-03-17T20:48:56.728Z,950.68
2023-03-17T20:51:56.763Z,950.7
2023-03-17T20:54:57.718Z,950.75
2023-03-17T20:57:56.937Z,950.73
2023-03-17T21:00:57.768Z,950.76
2023-03-17T21:03:57.765Z,950.75
2023-03-17T21:06:57.359Z,950.68
2023-03-17T21:09:56.630Z,950.72
2023-03-17T21:12:57.737Z,950.79
2023-03-17T21:15:57.107Z,950.84
2023-03-17T21:18:57.398Z,950.7
2023-03-17T21:21:56.985Z,950.79
2023-03-17T21:24:57.418Z,950.76
2023-03-17T21:27:57.231Z,950.87
2023-03-17T21:30:57.208Z,950.84
2023-03-17T21:33:57.155Z,950.9
2023-03-17T21:36:57.567Z,950.82
2023-03-17T21:39:57.215Z,950.8
2023-03-17T21:42:57.737Z,950.83
2023-03-17T21:45:57.171Z,950.81
2023-03-17T21:48:57.360Z,950.9
2023-03-17T21:51:56.866Z,950.83
2023-03-17T21:54:57.516Z,950.84
2023-03-17T21:57:57.797Z,950.86
2023-03-17T22:00:57.989Z,950.83
2023-03-17T22:03:57.845Z,950.81
2023-03-17T22:06:57.670Z,950.76
2023-03-17T22:09:57.036Z,950.85
2023-03-17T22:12:57.095Z,950.93
2023-03-17T22:15:57.641Z,950.8
2023-03-17T22:18:57.231Z,950.8
2023-03-17T22:21:57.889Z,950.83
2023-03-17T22:24:57.502Z,950.95
2023-03-17T22:27:57.702Z,950.81
2023-03-17T22:30:58.177Z,950.83
2023-03-17T22:33:57.516Z,950.91
2023-03-17T22:36:57.266Z,950.94
2023-03-17T22:39:57.178Z,950.93
2023-03-17T22:42:57.703Z,951.03
2023-03-17T22:45:58.084Z,951.03
2023-03-17T22:48:56.994Z,951.09
2023-03-17T22:51:57.095Z,951.1
2023-03-17T22:54:57.287Z,951.12
2023-03-17T22:57:57.497Z,951.25
2023-03-17T23:00:57.932Z,951.3
2023-03-17T23:03:57.597Z,951.35
2023-03-17T23:06:57.278Z,951.3
2023-03-17T23:09:57.264Z,951.39
2023-03-17T23:12:57.816Z,951.44
2023-03-17T23:15:56.952Z,951.44
2023-03-17T23:18:57.592Z,951.48
2023-03-17T23:21:56.657Z,951.56
2023-03-17T23:24:57.533Z,951.44
2023-03-17T23:27:56.800Z,951.5
2023-03-17T23:30:56.807Z,951.49
2023-03-17T23:33:57.609Z,951.45
2023-03-17T23:36:57.388Z,951.59
2023-03-17T23:39:57.219Z,951.62
2023-03-17T23:42:56.705Z,951.55
2023-03-17T23:45:57.144Z,951.69
2023-03-17T23:48:57.457Z,951.7
2023-03-17T23:51:56.672Z,951.62
2023-03-17T23:54:57.763Z,951.7
2023-03-17T23:57:57.583Z,951.72
